createdAt,value
2022-12-12T00:02:45.301Z,62.50
2022-12-12T00:05:32.663Z,62.36
2022-12-12T00:08:19.393Z,62.21
2022-12-12T00:11:07.623Z,62.02
2022-12-12T00:13:56.370Z,62.02
2022-12-12T00:16:45.314Z,61.84
2022-12-12T00:19:32.322Z,61.86
2022-12-12T00:22:19.729Z,61.83
2022-12-12T00:25:07.597Z,62.34
2022-12-12T00:27:54.354Z,63.05
2022-12-12T00:30:42.550Z,62.69
2022-12-12T00:33:29.559Z,63.12
2022-12-12T00:36:17.427Z,63.24
2022-12-12T00:39:04.857Z,62.84
2022-12-12T00:41:51.751Z,62.85
2022-12-12T00:44:39.165Z,63.08
2022-12-12T00:47:27.406Z,63.41
2022-12-12T00:50:15.048Z,63.23
2022-12-12T00:53:02.465Z,63.76
2022-12-12T00:55:56.440Z,63.41
2022-12-12T00:58:43.740Z,64.09
2022-12-12T01:01:32.753Z,64.29
2022-12-12T01:04:21.256Z,64.33
2022-12-12T01:07:08.552Z,64.04
2022-12-12T01:09:55.436Z,64.08
2022-12-12T01:12:42.406Z,64.11
2022-12-12T01:15:29.293Z,64.56
2022-12-12T01:18:16.666Z,64.54
2022-12-12T01:21:08.497Z,64.46
2022-12-12T01:23:55.703Z,64.65
2022-12-12T01:26:42.414Z,65.08
2022-12-12T01:29:29.936Z,65.07
2022-12-12T01:32:17.070Z,64.58
2022-12-12T01:35:08.136Z,64.49
2022-12-12T01:37:55.966Z,64.44
2022-12-12T01:40:43.071Z,64.31
2022-12-12T01:43:30.739Z,64.60
2022-12-12T01:46:38.161Z,64.65
2022-12-12T01:49:28.361Z,64.37
2022-12-12T01:52:19.934Z,64.18
2022-12-12T01:55:12.232Z,64.22
2022-12-12T01:57:59.538Z,64.30
2022-12-12T02:00:47.519Z,64.14
2022-12-12T02:03:34.685Z,64.27
2022-12-12T02:06:25.985Z,64.95
2022-12-12T02:09:15.193Z,64.79
2022-12-12T02:12:03.575Z,64.24
2022-12-12T02:14:53.784Z,64.79
2022-12-12T02:17:53.639Z,65.15
2022-12-12T02:20:53.452Z,65.17
2022-12-12T02:24:25.953Z,65.34
2022-12-12T02:27:50.563Z,65.29
2022-12-12T02:30:46.271Z,65.64
2022-12-12T02:33:40.159Z,65.33
2022-12-12T02:36:37.595Z,65.61
2022-12-12T02:39:31.170Z,66.01
2022-12-12T02:42:26.528Z,65.20
2022-12-12T02:45:21.422Z,65.43
2022-12-12T02:48:14.361Z,65.75
2022-12-12T02:51:05.923Z,65.61
2022-12-12T02:53:53.062Z,65.90
2022-12-12T02:56:46.695Z,66.12
2022-12-12T02:59:38.252Z,65.72
2022-12-12T03:02:50.791Z,65.78
2022-12-12T03:06:05.302Z,66.17
2022-12-12T03:09:06.244Z,65.42
2022-12-12T03:12:03.491Z,65.82
2022-12-12T03:14:57.624Z,65.40
2022-12-12T03:17:52.135Z,66.82
2022-12-12T03:20:46.076Z,65.19
2022-12-12T03:23:38.317Z,66.74
2022-12-12T03:26:34.184Z,66.10
2022-12-12T03:29:26.418Z,66.19
2022-12-12T03:32:18.159Z,66.15
2022-12-12T03:35:13.322Z,65.57
2022-12-12T03:38:06.128Z,65.77
2022-12-12T03:40:56.308Z,66.91
2022-12-12T03:43:51.387Z,66.47
2022-12-12T03:46:44.351Z,67.71
2022-12-12T03:49:38.694Z,67.07
2022-12-12T03:52:31.575Z,66.88
2022-12-12T03:55:25.461Z,66.63
2022-12-12T03:58:17.163Z,67.60
2022-12-12T04:01:10.626Z,67.04
2022-12-12T04:04:04.301Z,67.53
2022-12-12T04:06:59.519Z,67.13
2022-12-12T04:10:05.071Z,67.06
2022-12-12T04:13:00.485Z,67.12
2022-12-12T04:15:59.279Z,66.69
2022-12-12T04:18:56.907Z,67.29
2022-12-12T04:22:07.783Z,67.14
2022-12-12T04:25:01.841Z,66.84
2022-12-12T04:27:54.879Z,66.47
2022-12-12T04:30:42.238Z,66.62
2022-12-12T04:33:33.948Z,66.93
2022-12-12T04:36:24.607Z,67.51
2022-12-12T04:39:15.652Z,67.72
2022-12-12T04:42:05.958Z,66.89
2022-12-12T04:44:57.164Z,66.80
2022-12-12T04:47:47.659Z,66.75
2022-12-12T04:50:37.751Z,66.94
2022-12-12T04:53:30.926Z,66.53
2022-12-12T04:56:22.306Z,65.83
2022-12-12T04:59:09.909Z,65.93
2022-12-12T05:02:01.734Z,65.67
2022-12-12T05:04:54.516Z,65.54
2022-12-12T05:07:43.846Z,65.99
2022-12-12T05:10:32.200Z,65.68
2022-12-12T05:13:21.318Z,65.25
2022-12-12T05:16:21.253Z,64.95
2022-12-12T05:19:08.560Z,64.76
2022-12-12T05:21:55.163Z,65.09
2022-12-12T05:24:42.377Z,65.42
2022-12-12T05:27:30.525Z,65.38
2022-12-12T05:30:18.295Z,65.34
2022-12-12T05:33:05.267Z,65.04
2022-12-12T05:35:52.236Z,65.12
2022-12-12T05:38:39.253Z,64.92
2022-12-12T05:41:26.398Z,64.77
2022-12-12T05:44:14.540Z,64.85
2022-12-12T05:47:02.021Z,64.66
2022-12-12T05:49:49.371Z,65.41
2022-12-12T05:52:36.326Z,65.33
2022-12-12T05:55:23.274Z,65.52
2022-12-12T05:58:10.373Z,65.94
2022-12-12T06:01:03.038Z,65.36
2022-12-12T06:03:50.544Z,65.44
2022-12-12T06:06:37.339Z,65.03
2022-12-12T06:09:24.420Z,64.97
2022-12-12T06:12:10.984Z,64.80
2022-12-12T06:14:57.770Z,65.20
2022-12-12T06:17:45.877Z,65.03
2022-12-12T06:20:33.072Z,64.79
2022-12-12T06:23:19.925Z,65.32
2022-12-12T06:26:08.941Z,65.17
2022-12-12T06:28:56.865Z,65.70
2022-12-12T06:31:44.329Z,65.07
2022-12-12T06:34:32.447Z,65.16
2022-12-12T06:37:19.948Z,65.71
2022-12-12T06:40:08.011Z,65.60
2022-12-12T06:42:55.176Z,65.40
2022-12-12T06:45:41.926Z,65.58
2022-12-12T06:48:28.966Z,65.70
2022-12-12T06:51:20.401Z,65.88
2022-12-12T06:54:07.820Z,65.45
2022-12-12T06:56:57.078Z,64.96
2022-12-12T06:59:44.703Z,65.39
2022-12-12T07:02:31.822Z,65.39
2022-12-12T07:05:19.414Z,66.13
2022-12-12T07:08:08.183Z,65.32
2022-12-12T07:10:58.585Z,65.11
2022-12-12T07:13:49.073Z,65.39
2022-12-12T07:16:39.150Z,65.38
2022-12-12T07:19:26.581Z,64.80
2022-12-12T07:22:15.777Z,64.81
2022-12-12T07:25:06.999Z,64.80
2022-12-12T07:27:54.408Z,64.52
2022-12-12T07:30:44.015Z,64.79
2022-12-12T07:33:42.643Z,64.68
2022-12-12T07:36:30.115Z,64.66
2022-12-12T07:39:20.635Z,64.44
2022-12-12T07:42:09.132Z,64.07
2022-12-12T07:44:56.053Z,63.95
2022-12-12T07:47:42.755Z,63.87
2022-12-12T07:50:30.091Z,63.74
2022-12-12T07:53:16.784Z,63.86
2022-12-12T07:56:06.458Z,63.92
2022-12-12T07:58:55.520Z,63.97
2022-12-12T08:01:42.867Z,64.00
2022-12-12T08:04:30.154Z,63.80
2022-12-12T08:07:16.873Z,63.80
2022-12-12T08:10:04.800Z,63.49
2022-12-12T08:12:51.462Z,63.17
2022-12-12T08:15:39.852Z,63.47
2022-12-12T08:18:28.838Z,63.25
2022-12-12T08:21:26.796Z,63.10
2022-12-12T08:24:15.458Z,63.18
2022-12-12T08:27:02.891Z,63.04
2022-12-12T08:29:52.489Z,63.23
2022-12-12T08:32:41.078Z,63.13
2022-12-12T08:35:30.643Z,62.70
2022-12-12T08:38:18.094Z,62.54
2022-12-12T08:41:57.176Z,61.58
2022-12-12T08:44:44.175Z,61.58
2022-12-12T08:47:30.972Z,62.12
2022-12-12T08:50:17.793Z,61.81
2022-12-12T08:53:04.580Z,62.03
2022-12-12T08:55:52.330Z,61.79
2022-12-12T08:58:41.068Z,61.66
2022-12-12T09:01:28.744Z,61.25
2022-12-12T09:04:15.610Z,61.41
2022-12-12T09:07:08.296Z,61.32
2022-12-12T09:09:55.567Z,61.05
2022-12-12T09:12:42.579Z,61.25
2022-12-12T09:15:31.033Z,60.44
2022-12-12T09:18:18.325Z,60.61
2022-12-12T09:21:10.032Z,60.40
2022-12-12T09:23:57.017Z,59.68
2022-12-12T09:26:43.763Z,60.18
2022-12-12T09:29:30.857Z,59.95
2022-12-12T09:32:24.353Z,60.00
2022-12-12T09:35:13.035Z,59.21
2022-12-12T09:38:00.362Z,59.51
2022-12-12T09:40:52.895Z,59.94
2022-12-12T09:43:44.841Z,59.12
2022-12-12T09:46:37.635Z,58.91
2022-12-12T09:49:39.935Z,59.20
2022-12-12T09:52:32.992Z,59.54
2022-12-12T09:55:35.635Z,59.20
2022-12-12T09:58:15.976Z,58.92
2022-12-12T10:00:49.955Z,58.64
2022-12-12T10:03:27.146Z,58.67
2022-12-12T10:06:35.409Z,59.30
2022-12-12T10:09:03.659Z,59.05
2022-12-12T10:11:54.841Z,58.44
2022-12-12T10:14:34.462Z,58.07
2022-12-12T10:17:04.845Z,58.32
2022-12-12T10:19:43.674Z,57.71
2022-12-12T10:22:24.286Z,57.26
2022-12-12T10:24:56.818Z,57.81
2022-12-12T10:27:25.713Z,57.80
2022-12-12T10:29:54.942Z,58.37
2022-12-12T10:32:35.007Z,57.77
2022-12-12T10:35:22.780Z,57.96
2022-12-12T10:38:09.844Z,56.77
2022-12-12T10:40:50.351Z,57.16
2022-12-12T10:43:23.623Z,57.22
2022-12-12T10:46:16.946Z,57.32
2022-12-12T10:48:49.769Z,56.10
2022-12-12T10:51:25.944Z,57.65
2022-12-12T10:53:55.672Z,57.41
2022-12-12T10:56:30.911Z,56.66
2022-12-12T10:59:02.455Z,56.46
2022-12-12T11:02:07.981Z,57.03
2022-12-12T11:04:25.936Z,56.68
2022-12-12T11:06:56.579Z,56.30
2022-12-12T11:09:27.919Z,56.03
2022-12-12T11:12:01.473Z,55.51
2022-12-12T11:14:33.829Z,56.36
2022-12-12T11:17:02.476Z,55.96
2022-12-12T11:19:38.247Z,56.79
2022-12-12T11:22:06.684Z,55.88
2022-12-12T11:24:46.442Z,56.54
2022-12-12T11:27:22.824Z,55.57
2022-12-12T11:29:53.881Z,55.52
2022-12-12T11:32:26.485Z,55.12
2022-12-12T11:34:56.912Z,55.70
2022-12-12T11:37:30.092Z,56.56
2022-12-12T11:39:59.726Z,56.04
2022-12-12T11:42:30.441Z,56.59
2022-12-12T11:45:02.002Z,55.85
2022-12-12T11:47:35.919Z,56.16
2022-12-12T11:50:19.126Z,56.65
2022-12-12T11:52:49.588Z,55.20
2022-12-12T11:55:30.479Z,54.48
2022-12-12T11:58:15.535Z,55.60
2022-12-12T12:00:51.735Z,56.01
2022-12-12T12:03:28.752Z,55.33
2022-12-12T12:06:08.346Z,55.95
2022-12-12T12:08:50.997Z,55.33
2022-12-12T12:11:32.873Z,55.88
2022-12-12T12:14:25.707Z,56.03
2022-12-12T12:17:02.025Z,55.14
2022-12-12T12:19:41.310Z,56.06
2022-12-12T12:22:25.732Z,54.82
2022-12-12T12:25:16.039Z,55.89
2022-12-12T12:27:54.812Z,55.30
2022-12-12T12:30:24.847Z,55.90
2022-12-12T12:33:13.686Z,55.44
2022-12-12T12:35:56.762Z,55.41
2022-12-12T12:38:28.207Z,55.59
2022-12-12T12:41:21.077Z,55.36
2022-12-12T12:44:04.178Z,56.00
2022-12-12T12:46:42.901Z,55.30
2022-12-12T12:49:19.134Z,56.31
2022-12-12T12:51:53.995Z,55.81
2022-12-12T12:54:25.247Z,55.51
2022-12-12T12:56:59.635Z,56.61
2022-12-12T12:59:35.033Z,55.67
2022-12-12T13:02:13.455Z,56.59
2022-12-12T13:04:48.446Z,56.76
2022-12-12T13:07:28.777Z,55.73
2022-12-12T13:10:04.243Z,56.37
2022-12-12T13:12:36.727Z,56.28
2022-12-12T13:15:14.987Z,56.69
2022-12-12T13:17:49.451Z,56.36
2022-12-12T13:20:21.857Z,57.00
2022-12-12T13:23:00.939Z,56.64
2022-12-12T13:25:36.082Z,56.98
2022-12-12T13:28:08.809Z,56.72
2022-12-12T13:30:49.523Z,57.67
2022-12-12T13:33:36.760Z,57.08
2022-12-12T13:36:13.470Z,56.55
2022-12-12T13:38:47.624Z,57.98
2022-12-12T13:41:16.223Z,57.49
2022-12-12T13:43:48.325Z,57.68
2022-12-12T13:46:39.367Z,57.24
2022-12-12T13:49:26.779Z,57.48
2022-12-12T13:52:25.936Z,57.45
2022-12-12T13:54:56.798Z,57.79
2022-12-12T13:57:28.388Z,57.47
2022-12-12T14:00:20.257Z,57.86
2022-12-12T14:03:01.909Z,57.55
2022-12-12T14:05:34.832Z,57.69
2022-12-12T14:08:07.539Z,57.59
2022-12-12T14:10:38.484Z,57.74
2022-12-12T14:13:18.981Z,57.79
2022-12-12T14:15:48.909Z,57.09
2022-12-12T14:18:28.493Z,57.81
2022-12-12T14:21:03.506Z,57.88
2022-12-12T14:23:34.032Z,57.75
2022-12-12T14:26:03.136Z,57.73
2022-12-12T14:28:33.657Z,57.66
2022-12-12T14:31:14.723Z,57.74
2022-12-12T14:34:16.165Z,57.23
2022-12-12T14:37:23.860Z,57.39
2022-12-12T14:40:00.487Z,57.71
2022-12-12T14:43:21.414Z,57.62
2022-12-12T14:45:28.888Z,57.69
2022-12-12T14:48:16.720Z,57.82
2022-12-12T14:50:50.118Z,57.37
2022-12-12T14:53:21.470Z,57.64
2022-12-12T14:55:53.557Z,57.75
2022-12-12T14:58:23.687Z,57.61
2022-12-12T15:00:55.105Z,57.76
2022-12-12T15:03:26.141Z,57.60
2022-12-12T15:06:33.239Z,57.98
2022-12-12T15:09:11.657Z,57.69
2022-12-12T15:11:40.731Z,57.76
2022-12-12T15:14:19.152Z,57.97
2022-12-12T15:16:52.921Z,57.98
2022-12-12T15:19:27.008Z,58.01
2022-12-12T15:21:58.115Z,58.07
2022-12-12T15:24:28.432Z,58.12
2022-12-12T15:26:59.998Z,58.15
2022-12-12T15:29:30.766Z,58.17
2022-12-12T15:32:02.156Z,58.15
2022-12-12T15:34:33.739Z,58.20
2022-12-12T15:37:29.146Z,58.19
2022-12-12T15:40:26.458Z,58.06
2022-12-12T15:42:58.773Z,57.99
2022-12-12T15:45:33.831Z,58.22
2022-12-12T15:48:02.514Z,58.07
2022-12-12T15:50:48.092Z,58.13
2022-12-12T15:53:23.093Z,58.25
2022-12-12T15:56:00.685Z,58.44
2022-12-12T15:58:32.142Z,58.55
2022-12-12T16:01:07.630Z,58.36
2022-12-12T16:03:36.690Z,58.55
2022-12-12T16:06:15.350Z,58.46
2022-12-12T16:08:54.128Z,58.45
2022-12-12T16:11:37.660Z,58.60
2022-12-12T16:14:07.066Z,58.52
2022-12-12T16:16:38.745Z,58.64
2022-12-12T16:19:22.380Z,58.61
2022-12-12T16:21:50.666Z,58.39
2022-12-12T16:24:25.802Z,58.52
2022-12-12T16:26:58.117Z,58.35
2022-12-12T16:29:26.712Z,58.42
2022-12-12T16:31:56.142Z,58.39
2022-12-12T16:34:24.604Z,58.45
2022-12-12T16:36:53.314Z,58.51
2022-12-12T16:39:22.843Z,58.17
2022-12-12T16:41:51.125Z,58.04
2022-12-12T16:44:19.599Z,58.10
2022-12-12T16:46:47.878Z,58.10
2022-12-12T16:49:16.100Z,58.57
2022-12-12T16:51:44.584Z,58.37
2022-12-12T16:54:17.858Z,58.41
2022-12-12T16:56:52.514Z,58.04
2022-12-12T16:59:20.669Z,58.18
2022-12-12T17:01:49.058Z,58.26
2022-12-12T17:04:22.437Z,58.19
2022-12-12T17:06:51.674Z,58.15
2022-12-12T17:09:21.444Z,58.18
2022-12-12T17:11:52.179Z,58.39
2022-12-12T17:14:22.785Z,58.33
2022-12-12T17:16:51.561Z,58.32
2022-12-12T17:19:20.607Z,58.45
2022-12-12T17:21:49.219Z,58.46
2022-12-12T17:24:17.718Z,58.51
2022-12-12T17:26:46.583Z,58.72
2022-12-12T17:29:16.100Z,58.56
2022-12-12T17:31:47.525Z,58.46
2022-12-12T17:34:15.952Z,58.34
2022-12-12T17:36:44.316Z,58.52
2022-12-12T17:39:12.622Z,58.45
2022-12-12T17:41:40.862Z,58.57
2022-12-12T17:44:09.429Z,58.46
2022-12-12T17:46:39.002Z,58.38
2022-12-12T17:49:07.252Z,58.28
2022-12-12T17:51:37.423Z,58.28
2022-12-12T17:54:05.756Z,58.24
2022-12-12T17:56:33.951Z,58.20
2022-12-12T17:59:05.918Z,58.19
2022-12-12T18:01:34.285Z,58.17
2022-12-12T18:04:05.916Z,58.12
2022-12-12T18:06:36.091Z,58.18
2022-12-12T18:09:05.780Z,58.09
2022-12-12T18:11:35.731Z,58.21
2022-12-12T18:14:06.618Z,58.34
2022-12-12T18:16:37.239Z,58.42
2022-12-12T18:19:06.840Z,58.42
2022-12-12T18:21:59.632Z,58.36
2022-12-12T18:24:29.145Z,58.40
2022-12-12T18:26:59.363Z,58.49
2022-12-12T18:29:28.411Z,58.59
2022-12-12T18:31:56.925Z,58.61
2022-12-12T18:34:27.397Z,58.58
2022-12-12T18:36:55.587Z,58.74
2022-12-12T18:39:23.773Z,58.77
2022-12-12T18:41:52.968Z,58.77
2022-12-12T18:44:21.132Z,58.83
2022-12-12T18:46:52.013Z,58.72
2022-12-12T18:49:20.969Z,58.68
2022-12-12T18:51:51.046Z,58.77
2022-12-12T18:54:19.800Z,58.79
2022-12-12T18:56:51.242Z,58.86
2022-12-12T18:59:19.513Z,58.96
2022-12-12T19:01:50.171Z,58.97
2022-12-12T19:04:23.201Z,58.87
2022-12-12T19:06:55.276Z,58.93
2022-12-12T19:09:23.851Z,59.10
2022-12-12T19:11:55.736Z,59.12
2022-12-12T19:14:45.883Z,59.14
2022-12-12T19:17:25.341Z,59.01
2022-12-12T19:19:55.575Z,58.98
2022-12-12T19:22:44.336Z,58.97
2022-12-12T19:25:14.870Z,58.78
2022-12-12T19:27:43.039Z,58.84
2022-12-12T19:30:13.156Z,58.84
2022-12-12T19:32:43.050Z,58.75
2022-12-12T19:35:11.311Z,58.76
2022-12-12T19:37:40.997Z,58.91
2022-12-12T19:40:11.261Z,59.06
2022-12-12T19:42:40.028Z,59.10
2022-12-12T19:45:10.169Z,59.05
2022-12-12T19:47:38.645Z,59.03
2022-12-12T19:50:07.526Z,59.03
2022-12-12T19:52:35.674Z,58.95
2022-12-12T19:55:06.072Z,58.94
2022-12-12T19:57:34.305Z,59.04
2022-12-12T20:00:03.531Z,58.97
2022-12-12T20:02:37.850Z,58.95
2022-12-12T20:05:06.888Z,58.84
2022-12-12T20:07:35.291Z,58.92
2022-12-12T20:10:05.131Z,58.66
2022-12-12T20:12:33.640Z,58.62
2022-12-12T20:15:01.826Z,58.55
2022-12-12T20:17:30.213Z,58.43
2022-12-12T20:19:58.596Z,58.58
2022-12-12T20:22:27.068Z,58.57
2022-12-12T20:24:55.280Z,58.70
2022-12-12T20:27:25.178Z,58.74
2022-12-12T20:29:53.339Z,58.76
2022-12-12T20:32:21.548Z,58.86
2022-12-12T20:34:50.062Z,58.97
2022-12-12T20:37:20.128Z,58.89
2022-12-12T20:39:48.555Z,58.88
2022-12-12T20:42:16.973Z,58.95
2022-12-12T20:44:46.472Z,58.88
2022-12-12T20:47:17.229Z,58.72
2022-12-12T20:49:45.864Z,58.72
2022-12-12T20:52:14.319Z,58.84
2022-12-12T20:54:42.530Z,58.80
2022-12-12T20:57:11.101Z,58.63
2022-12-12T20:59:39.375Z,58.52
2022-12-12T21:02:11.959Z,58.45
2022-12-12T21:04:40.393Z,58.39
2022-12-12T21:07:09.501Z,58.38
2022-12-12T21:09:37.958Z,58.36
2022-12-12T21:12:06.550Z,58.34
2022-12-12T21:14:36.945Z,58.59
2022-12-12T21:17:05.126Z,58.63
2022-12-12T21:19:35.737Z,58.35
2022-12-12T21:22:05.536Z,58.25
2022-12-12T21:24:33.851Z,58.24
2022-12-12T21:27:02.015Z,58.23
2022-12-12T21:29:30.222Z,58.24
2022-12-12T21:31:59.120Z,58.29
2022-12-12T21:34:27.334Z,58.24
2022-12-12T21:36:57.557Z,58.34
2022-12-12T21:39:27.871Z,58.30
2022-12-12T21:41:56.855Z,58.25
2022-12-12T21:44:25.762Z,58.42
2022-12-12T21:46:54.328Z,58.53
2022-12-12T21:49:28.706Z,58.60
2022-12-12T21:52:00.702Z,58.45
2022-12-12T21:54:30.059Z,58.60
2022-12-12T21:56:59.309Z,58.58
2022-12-12T21:59:28.213Z,58.25
2022-12-12T22:01:57.362Z,58.30
2022-12-12T22:04:26.834Z,58.36
2022-12-12T22:06:55.268Z,58.37
2022-12-12T22:09:25.238Z,58.35
2022-12-12T22:12:04.320Z,58.15
2022-12-12T22:14:34.106Z,57.95
2022-12-12T22:17:03.016Z,58.34
2022-12-12T22:19:31.381Z,58.41
2022-12-12T22:21:59.725Z,58.27
2022-12-12T22:24:29.911Z,58.16
2022-12-12T22:26:58.200Z,58.21
2022-12-12T22:29:26.537Z,58.11
2022-12-12T22:31:55.420Z,58.45
2022-12-12T22:34:25.541Z,58.99
2022-12-12T22:36:54.600Z,59.14
2022-12-12T22:39:26.338Z,59.04
2022-12-12T22:41:57.177Z,59.21
2022-12-12T22:44:26.680Z,59.07
2022-12-12T22:46:55.946Z,58.98
2022-12-12T22:49:26.678Z,59.02
2022-12-12T22:51:56.849Z,59.11
2022-12-12T22:54:26.058Z,59.34
2022-12-12T22:57:01.208Z,59.11
2022-12-12T22:59:29.360Z,59.07
2022-12-12T23:01:57.823Z,59.10
2022-12-12T23:04:26.664Z,58.81
2022-12-12T23:06:54.986Z,58.92
2022-12-12T23:09:26.330Z,58.89
2022-12-12T23:11:55.017Z,58.82
2022-12-12T23:14:26.907Z,58.50
2022-12-12T23:16:56.042Z,58.38
2022-12-12T23:19:26.247Z,58.20
2022-12-12T23:21:54.632Z,58.40
2022-12-12T23:24:23.399Z,58.76
2022-12-12T23:26:52.709Z,58.87
2022-12-12T23:29:21.179Z,58.90
2022-12-12T23:31:51.298Z,58.68
2022-12-12T23:34:23.434Z,58.65
2022-12-12T23:36:52.859Z,58.29
2022-12-12T23:39:22.175Z,58.68
2022-12-12T23:41:50.868Z,58.87
2022-12-12T23:44:20.623Z,59.15
2022-12-12T23:46:51.153Z,59.19
2022-12-12T23:49:21.272Z,59.28
2022-12-12T23:51:51.503Z,60.04
2022-12-12T23:54:22.977Z,60.26
2022-12-12T23:56:52.580Z,60.37
2022-12-12T23:59:25.352Z,60.08
